sensor_id;sensor_type;location;lat;lon;timestamp;P1;durP1;ratioP1;P2;durP2;ratioP2
13981;SDS011;7065;50.880;5.502;2023-05-19T00:01:10;8.57;;;5.40;;
13981;SDS011;7065;50.880;5.502;2023-05-19T00:03:40;6.32;;;4.65;;
13981;SDS011;7065;50.880;5.502;2023-05-19T00:06:21;6.95;;;4.95;;
13981;SDS011;7065;50.880;5.502;2023-05-19T00:08:49;6.32;;;4.95;;
13981;SDS011;7065;50.880;5.502;2023-05-19T00:11:18;10.43;;;5.85;;
13981;SDS011;7065;50.880;5.502;2023-05-19T00:13:44;7.68;;;5.45;;
13981;SDS011;7065;50.880;5.502;2023-05-19T00:16:13;6.35;;;5.18;;
13981;SDS011;7065;50.880;5.502;2023-05-19T00:18:39;7.93;;;5.80;;
13981;SDS011;7065;50.880;5.502;2023-05-19T00:21:05;7.05;;;5.55;;
13981;SDS011;7065;50.880;5.502;2023-05-19T00:23:31;7.97;;;5.53;;
13981;SDS011;7065;50.880;5.502;2023-05-19T00:25:57;8.27;;;5.97;;
13981;SDS011;7065;50.880;5.502;2023-05-19T00:28:22;6.53;;;5.75;;
13981;SDS011;7065;50.880;5.502;2023-05-19T00:30:49;8.82;;;6.10;;
13981;SDS011;7065;50.880;5.502;2023-05-19T00:33:15;6.57;;;5.45;;
13981;SDS011;7065;50.880;5.502;2023-05-19T00:35:41;8.63;;;6.13;;
13981;SDS011;7065;50.880;5.502;2023-05-19T00:38:07;7.90;;;5.72;;
13981;SDS011;7065;50.880;5.502;2023-05-19T00:40:35;7.10;;;5.45;;
13981;SDS011;7065;50.880;5.502;2023-05-19T00:43:01;6.70;;;5.45;;
13981;SDS011;7065;50.880;5.502;2023-05-19T00:45:29;8.07;;;5.28;;
13981;SDS011;7065;50.880;5.502;2023-05-19T00:47:55;10.52;;;5.78;;
13981;SDS011;7065;50.880;5.502;2023-05-19T00:50:21;11.23;;;5.90;;
13981;SDS011;7065;50.880;5.502;2023-05-19T00:52:48;6.50;;;5.60;;
13981;SDS011;7065;50.880;5.502;2023-05-19T00:55:15;7.68;;;5.70;;
13981;SDS011;7065;50.880;5.502;2023-05-19T00:57:41;7.40;;;5.53;;
13981;SDS011;7065;50.880;5.502;2023-05-19T01:00:08;10.35;;;5.25;;
13981;SDS011;7065;50.880;5.502;2023-05-19T01:02:35;6.93;;;5.38;;
13981;SDS011;7065;50.880;5.502;2023-05-19T01:05:04;6.53;;;5.65;;
13981;SDS011;7065;50.880;5.502;2023-05-19T01:07:30;9.27;;;5.80;;
13981;SDS011;7065;50.880;5.502;2023-05-19T01:09:57;9.02;;;5.95;;
13981;SDS011;7065;50.880;5.502;2023-05-19T01:12:23;8.02;;;5.78;;
13981;SDS011;7065;50.880;5.502;2023-05-19T01:14:50;7.95;;;5.85;;
13981;SDS011;7065;50.880;5.502;2023-05-19T01:28:30;6.97;;;5.70;;
13981;SDS011;7065;50.880;5.502;2023-05-19T01:31:21;6.13;;;5.10;;
13981;SDS011;7065;50.880;5.502;2023-05-19T01:33:49;6.68;;;5.55;;
13981;SDS011;7065;50.880;5.502;2023-05-19T01:36:18;7.25;;;5.15;;
13981;SDS011;7065;50.880;5.502;2023-05-19T01:38:45;8.45;;;5.57;;
13981;SDS011;7065;50.880;5.502;2023-05-19T01:41:15;9.75;;;5.20;;
13981;SDS011;7065;50.880;5.502;2023-05-19T01:43:45;7.88;;;6.07;;
13981;SDS011;7065;50.880;5.502;2023-05-19T01:46:12;6.40;;;5.25;;
13981;SDS011;7065;50.880;5.502;2023-05-19T01:48:38;7.25;;;6.05;;
13981;SDS011;7065;50.880;5.502;2023-05-19T01:51:04;6.32;;;5.72;;
13981;SDS011;7065;50.880;5.502;2023-05-19T01:53:30;6.78;;;5.90;;
13981;SDS011;7065;50.880;5.502;2023-05-19T01:55:57;8.05;;;5.70;;
13981;SDS011;7065;50.880;5.502;2023-05-19T01:58:37;6.55;;;5.13;;
13981;SDS011;7065;50.880;5.502;2023-05-19T02:01:20;7.82;;;5.55;;
13981;SDS011;7065;50.880;5.502;2023-05-19T02:07:14;6.88;;;5.60;;
13981;SDS011;7065;50.880;5.502;2023-05-19T02:09:52;6.68;;;5.05;;
13981;SDS011;7065;50.880;5.502;2023-05-19T02:12:36;7.60;;;5.53;;
13981;SDS011;7065;50.880;5.502;2023-05-19T02:15:10;7.95;;;5.57;;
13981;SDS011;7065;50.880;5.502;2023-05-19T02:17:43;10.25;;;5.78;;
13981;SDS011;7065;50.880;5.502;2023-05-19T02:20:15;9.05;;;6.63;;
13981;SDS011;7065;50.880;5.502;2023-05-19T02:22:43;9.75;;;5.82;;
13981;SDS011;7065;50.880;5.502;2023-05-19T02:25:09;6.88;;;5.72;;
13981;SDS011;7065;50.880;5.502;2023-05-19T02:27:36;7.18;;;5.85;;
13981;SDS011;7065;50.880;5.502;2023-05-19T02:30:02;7.88;;;5.80;;
13981;SDS011;7065;50.880;5.502;2023-05-19T02:32:30;7.50;;;5.65;;
13981;SDS011;7065;50.880;5.502;2023-05-19T02:34:57;7.88;;;5.93;;
13981;SDS011;7065;50.880;5.502;2023-05-19T02:37:22;9.15;;;5.45;;
13981;SDS011;7065;50.880;5.502;2023-05-19T02:39:49;6.75;;;5.88;;
13981;SDS011;7065;50.880;5.502;2023-05-19T02:42:15;6.78;;;6.10;;
13981;SDS011;7065;50.880;5.502;2023-05-19T02:44:43;7.20;;;6.32;;
13981;SDS011;7065;50.880;5.502;2023-05-19T02:47:09;9.18;;;6.20;;
13981;SDS011;7065;50.880;5.502;2023-05-19T02:49:34;7.45;;;5.47;;
13981;SDS011;7065;50.880;5.502;2023-05-19T02:52:01;7.38;;;5.43;;
13981;SDS011;7065;50.880;5.502;2023-05-19T02:54:28;6.35;;;5.70;;
13981;SDS011;7065;50.880;5.502;2023-05-19T02:56:54;6.18;;;5.47;;
13981;SDS011;7065;50.880;5.502;2023-05-19T02:59:20;8.23;;;6.03;;
13981;SDS011;7065;50.880;5.502;2023-05-19T03:01:47;6.50;;;5.50;;
13981;SDS011;7065;50.880;5.502;2023-05-19T03:04:13;6.22;;;5.63;;
13981;SDS011;7065;50.880;5.502;2023-05-19T03:06:39;6.10;;;5.50;;
13981;SDS011;7065;50.880;5.502;2023-05-19T03:09:06;5.65;;;5.15;;
13981;SDS011;7065;50.880;5.502;2023-05-19T03:11:32;9.07;;;6.55;;
13981;SDS011;7065;50.880;5.502;2023-05-19T03:13:57;7.75;;;6.20;;
13981;SDS011;7065;50.880;5.502;2023-05-19T03:16:24;8.05;;;5.70;;
13981;SDS011;7065;50.880;5.502;2023-05-19T03:18:52;6.93;;;5.85;;
13981;SDS011;7065;50.880;5.502;2023-05-19T03:21:17;6.65;;;5.75;;
13981;SDS011;7065;50.880;5.502;2023-05-19T03:23:43;10.23;;;6.18;;
13981;SDS011;7065;50.880;5.502;2023-05-19T03:26:09;8.77;;;6.38;;
13981;SDS011;7065;50.880;5.502;2023-05-19T03:28:35;9.65;;;6.38;;
13981;SDS011;7065;50.880;5.502;2023-05-19T03:31:00;9.02;;;6.95;;
13981;SDS011;7065;50.880;5.502;2023-05-19T03:33:26;7.20;;;6.50;;
13981;SDS011;7065;50.880;5.502;2023-05-19T03:35:53;7.03;;;6.13;;
13981;SDS011;7065;50.880;5.502;2023-05-19T03:38:20;8.60;;;6.75;;
13981;SDS011;7065;50.880;5.502;2023-05-19T03:40:46;7.90;;;7.03;;
13981;SDS011;7065;50.880;5.502;2023-05-19T03:43:12;7.82;;;6.40;;
13981;SDS011;7065;50.880;5.502;2023-05-19T03:45:38;7.50;;;6.80;;
13981;SDS011;7065;50.880;5.502;2023-05-19T03:48:04;8.45;;;6.30;;
13981;SDS011;7065;50.880;5.502;2023-05-19T03:50:30;8.23;;;6.15;;
13981;SDS011;7065;50.880;5.502;2023-05-19T03:52:57;10.13;;;6.95;;
13981;SDS011;7065;50.880;5.502;2023-05-19T03:55:24;7.80;;;6.63;;
13981;SDS011;7065;50.880;5.502;2023-05-19T03:57:50;8.63;;;6.88;;
13981;SDS011;7065;50.880;5.502;2023-05-19T04:00:16;8.75;;;7.32;;
13981;SDS011;7065;50.880;5.502;2023-05-19T04:02:43;9.75;;;8.20;;
13981;SDS011;7065;50.880;5.502;2023-05-19T04:05:09;9.60;;;7.65;;
13981;SDS011;7065;50.880;5.502;2023-05-19T04:07:34;11.57;;;7.68;;
13981;SDS011;7065;50.880;5.502;2023-05-19T04:10:03;9.90;;;7.80;;
13981;SDS011;7065;50.880;5.502;2023-05-19T04:12:29;8.45;;;7.45;;
13981;SDS011;7065;50.880;5.502;2023-05-19T04:14:54;10.55;;;8.45;;
13981;SDS011;7065;50.880;5.502;2023-05-19T04:17:20;11.13;;;8.15;;
13981;SDS011;7065;50.880;5.502;2023-05-19T04:19:50;11.13;;;8.57;;
13981;SDS011;7065;50.880;5.502;2023-05-19T04:22:16;9.43;;;7.60;;
13981;SDS011;7065;50.880;5.502;2023-05-19T04:24:42;10.07;;;8.30;;
13981;SDS011;7065;50.880;5.502;2023-05-19T04:27:08;10.05;;;8.88;;
13981;SDS011;7065;50.880;5.502;2023-05-19T04:29:36;14.02;;;8.18;;
13981;SDS011;7065;50.880;5.502;2023-05-19T04:32:05;13.45;;;9.23;;
13981;SDS011;7065;50.880;5.502;2023-05-19T04:34:31;9.35;;;8.05;;
13981;SDS011;7065;50.880;5.502;2023-05-19T04:37:04;12.75;;;8.40;;
13981;SDS011;7065;50.880;5.502;2023-05-19T04:39:34;8.88;;;7.88;;
13981;SDS011;7065;50.880;5.502;2023-05-19T04:42:02;11.35;;;8.23;;
13981;SDS011;7065;50.880;5.502;2023-05-19T04:44:28;10.82;;;8.52;;
13981;SDS011;7065;50.880;5.502;2023-05-19T04:46:55;9.85;;;7.88;;
13981;SDS011;7065;50.880;5.502;2023-05-19T04:49:22;9.68;;;8.20;;
13981;SDS011;7065;50.880;5.502;2023-05-19T04:51:48;10.15;;;8.40;;
13981;SDS011;7065;50.880;5.502;2023-05-19T04:54:15;11.75;;;8.63;;
13981;SDS011;7065;50.880;5.502;2023-05-19T04:56:41;11.95;;;8.63;;
13981;SDS011;7065;50.880;5.502;2023-05-19T04:59:07;9.63;;;7.97;;
13981;SDS011;7065;50.880;5.502;2023-05-19T05:01:34;11.10;;;9.48;;
13981;SDS011;7065;50.880;5.502;2023-05-19T05:04:04;12.18;;;9.13;;
13981;SDS011;7065;50.880;5.502;2023-05-19T05:06:30;10.90;;;8.50;;
13981;SDS011;7065;50.880;5.502;2023-05-19T05:08:56;10.25;;;9.13;;
13981;SDS011;7065;50.880;5.502;2023-05-19T05:11:24;12.90;;;9.60;;
13981;SDS011;7065;50.880;5.502;2023-05-19T05:13:50;11.10;;;8.65;;
13981;SDS011;7065;50.880;5.502;2023-05-19T05:16:16;14.73;;;10.25;;
13981;SDS011;7065;50.880;5.502;2023-05-19T05:18:42;11.90;;;9.40;;
13981;SDS011;7065;50.880;5.502;2023-05-19T05:21:08;11.43;;;9.38;;
13981;SDS011;7065;50.880;5.502;2023-05-19T05:23:34;13.80;;;10.98;;
13981;SDS011;7065;50.880;5.502;2023-05-19T05:26:01;14.25;;;10.25;;
13981;SDS011;7065;50.880;5.502;2023-05-19T05:28:41;15.32;;;10.43;;
13981;SDS011;7065;50.880;5.502;2023-05-19T05:31:06;12.15;;;9.75;;
13981;SDS011;7065;50.880;5.502;2023-05-19T05:33:32;12.88;;;9.27;;
13981;SDS011;7065;50.880;5.502;2023-05-19T05:35:58;13.43;;;10.02;;
13981;SDS011;7065;50.880;5.502;2023-05-19T05:38:23;13.65;;;9.73;;
13981;SDS011;7065;50.880;5.502;2023-05-19T05:40:49;15.20;;;10.20;;
13981;SDS011;7065;50.880;5.502;2023-05-19T05:43:15;17.50;;;10.55;;
13981;SDS011;7065;50.880;5.502;2023-05-19T05:45:41;14.02;;;9.50;;
13981;SDS011;7065;50.880;5.502;2023-05-19T05:48:07;16.30;;;10.68;;
13981;SDS011;7065;50.880;5.502;2023-05-19T05:50:33;12.07;;;10.45;;
13981;SDS011;7065;50.880;5.502;2023-05-19T05:52:58;13.20;;;10.05;;
13981;SDS011;7065;50.880;5.502;2023-05-19T05:55:26;11.35;;;10.05;;
13981;SDS011;7065;50.880;5.502;2023-05-19T05:57:52;14.25;;;10.10;;
13981;SDS011;7065;50.880;5.502;2023-05-19T06:00:20;13.05;;;10.35;;
13981;SDS011;7065;50.880;5.502;2023-05-19T06:02:47;15.13;;;10.30;;
13981;SDS011;7065;50.880;5.502;2023-05-19T06:05:14;17.10;;;10.30;;
13981;SDS011;7065;50.880;5.502;2023-05-19T06:07:41;12.75;;;9.88;;
13981;SDS011;7065;50.880;5.502;2023-05-19T06:10:07;13.95;;;9.60;;
13981;SDS011;7065;50.880;5.502;2023-05-19T06:12:34;11.88;;;9.52;;
13981;SDS011;7065;50.880;5.502;2023-05-19T06:15:02;12.80;;;10.13;;
13981;SDS011;7065;50.880;5.502;2023-05-19T06:17:28;13.77;;;9.90;;
13981;SDS011;7065;50.880;5.502;2023-05-19T06:19:54;12.00;;;9.48;;
13981;SDS011;7065;50.880;5.502;2023-05-19T06:22:20;14.25;;;10.43;;
13981;SDS011;7065;50.880;5.502;2023-05-19T06:24:46;23.80;;;11.55;;
13981;SDS011;7065;50.880;5.502;2023-05-19T06:27:12;21.52;;;10.90;;
13981;SDS011;7065;50.880;5.502;2023-05-19T06:29:38;16.88;;;10.00;;
13981;SDS011;7065;50.880;5.502;2023-05-19T06:32:03;10.30;;;9.20;;
13981;SDS011;7065;50.880;5.502;2023-05-19T06:34:29;11.02;;;9.93;;
13981;SDS011;7065;50.880;5.502;2023-05-19T06:36:56;11.80;;;9.23;;
13981;SDS011;7065;50.880;5.502;2023-05-19T06:39:21;14.70;;;9.80;;
13981;SDS011;7065;50.880;5.502;2023-05-19T06:41:48;12.73;;;8.38;;
13981;SDS011;7065;50.880;5.502;2023-05-19T06:44:14;13.18;;;8.80;;
13981;SDS011;7065;50.880;5.502;2023-05-19T06:46:40;11.40;;;7.03;;
13981;SDS011;7065;50.880;5.502;2023-05-19T06:49:05;11.25;;;7.50;;
13981;SDS011;7065;50.880;5.502;2023-05-19T06:51:31;11.10;;;8.45;;
13981;SDS011;7065;50.880;5.502;2023-05-19T06:53:57;8.93;;;7.60;;
13981;SDS011;7065;50.880;5.502;2023-05-19T06:56:22;8.38;;;6.28;;
13981;SDS011;7065;50.880;5.502;2023-05-19T06:58:48;10.90;;;7.10;;
13981;SDS011;7065;50.880;5.502;2023-05-19T07:01:14;8.38;;;6.63;;
13981;SDS011;7065;50.880;5.502;2023-05-19T07:03:40;10.32;;;6.25;;
13981;SDS011;7065;50.880;5.502;2023-05-19T07:06:06;9.55;;;6.65;;
13981;SDS011;7065;50.880;5.502;2023-05-19T07:08:31;13.13;;;6.57;;
13981;SDS011;7065;50.880;5.502;2023-05-19T07:10:58;8.18;;;5.78;;
13981;SDS011;7065;50.880;5.502;2023-05-19T07:13:24;7.85;;;5.03;;
13981;SDS011;7065;50.880;5.502;2023-05-19T07:15:50;8.80;;;5.88;;
13981;SDS011;7065;50.880;5.502;2023-05-19T07:18:19;7.75;;;5.22;;
13981;SDS011;7065;50.880;5.502;2023-05-19T07:20:45;9.27;;;5.35;;
13981;SDS011;7065;50.880;5.502;2023-05-19T07:23:11;7.38;;;5.72;;
13981;SDS011;7065;50.880;5.502;2023-05-19T07:25:37;7.88;;;5.32;;
13981;SDS011;7065;50.880;5.502;2023-05-19T07:28:03;8.52;;;4.72;;
13981;SDS011;7065;50.880;5.502;2023-05-19T07:30:28;10.40;;;5.15;;
13981;SDS011;7065;50.880;5.502;2023-05-19T07:32:54;7.93;;;5.13;;
13981;SDS011;7065;50.880;5.502;2023-05-19T07:35:20;7.82;;;4.75;;
13981;SDS011;7065;50.880;5.502;2023-05-19T07:37:50;9.50;;;4.75;;
13981;SDS011;7065;50.880;5.502;2023-05-19T07:40:16;6.07;;;4.50;;
13981;SDS011;7065;50.880;5.502;2023-05-19T07:42:43;6.65;;;4.95;;
13981;SDS011;7065;50.880;5.502;2023-05-19T07:45:09;7.82;;;4.53;;
13981;SDS011;7065;50.880;5.502;2023-05-19T07:47:35;8.30;;;4.18;;
13981;SDS011;7065;50.880;5.502;2023-05-19T07:50:01;8.45;;;4.53;;
13981;SDS011;7065;50.880;5.502;2023-05-19T07:52:28;6.20;;;3.72;;
13981;SDS011;7065;50.880;5.502;2023-05-19T07:54:54;10.32;;;4.35;;
13981;SDS011;7065;50.880;5.502;2023-05-19T07:57:20;10.77;;;3.40;;
13981;SDS011;7065;50.880;5.502;2023-05-19T07:59:46;7.47;;;3.58;;
13981;SDS011;7065;50.880;5.502;2023-05-19T08:02:11;8.90;;;3.78;;
13981;SDS011;7065;50.880;5.502;2023-05-19T08:04:37;6.70;;;3.70;;
13981;SDS011;7065;50.880;5.502;2023-05-19T08:07:03;7.50;;;3.45;;
13981;SDS011;7065;50.880;5.502;2023-05-19T08:09:28;5.75;;;3.88;;
13981;SDS011;7065;50.880;5.502;2023-05-19T08:11:54;9.52;;;4.35;;
13981;SDS011;7065;50.880;5.502;2023-05-19T08:14:20;10.60;;;3.40;;
13981;SDS011;7065;50.880;5.502;2023-05-19T08:16:47;8.48;;;3.67;;
13981;SDS011;7065;50.880;5.502;2023-05-19T08:19:13;6.03;;;2.90;;
13981;SDS011;7065;50.880;5.502;2023-05-19T08:21:38;5.93;;;2.63;;
13981;SDS011;7065;50.880;5.502;2023-05-19T08:24:06;5.00;;;2.50;;
13981;SDS011;7065;50.880;5.502;2023-05-19T08:26:32;8.00;;;2.60;;
13981;SDS011;7065;50.880;5.502;2023-05-19T08:28:58;9.20;;;2.97;;
13981;SDS011;7065;50.880;5.502;2023-05-19T08:31:24;32.72;;;7.32;;
13981;SDS011;7065;50.880;5.502;2023-05-19T08:33:50;13.40;;;4.50;;
13981;SDS011;7065;50.880;5.502;2023-05-19T08:36:16;5.25;;;2.78;;
13981;SDS011;7065;50.880;5.502;2023-05-19T08:38:42;6.22;;;2.60;;
13981;SDS011;7065;50.880;5.502;2023-05-19T08:41:08;4.35;;;2.33;;
13981;SDS011;7065;50.880;5.502;2023-05-19T08:43:34;33.80;;;7.78;;
13981;SDS011;7065;50.880;5.502;2023-05-19T08:46:00;10.50;;;3.13;;
13981;SDS011;7065;50.880;5.502;2023-05-19T08:48:28;25.75;;;5.50;;
13981;SDS011;7065;50.880;5.502;2023-05-19T08:53:39;7.03;;;2.70;;
13981;SDS011;7065;50.880;5.502;2023-05-19T08:56:11;5.57;;;2.50;;
13981;SDS011;7065;50.880;5.502;2023-05-19T08:58:40;5.32;;;2.72;;
13981;SDS011;7065;50.880;5.502;2023-05-19T09:01:08;7.22;;;2.67;;
13981;SDS011;7065;50.880;5.502;2023-05-19T09:03:38;5.50;;;2.40;;
13981;SDS011;7065;50.880;5.502;2023-05-19T09:06:07;8.90;;;2.60;;
13981;SDS011;7065;50.880;5.502;2023-05-19T09:08:34;8.35;;;2.53;;
13981;SDS011;7065;50.880;5.502;2023-05-19T09:11:01;4.88;;;2.40;;
13981;SDS011;7065;50.880;5.502;2023-05-19T09:13:27;6.45;;;2.40;;
13981;SDS011;7065;50.880;5.502;2023-05-19T09:15:53;5.53;;;2.50;;
13981;SDS011;7065;50.880;5.502;2023-05-19T09:18:21;4.47;;;1.92;;
13981;SDS011;7065;50.880;5.502;2023-05-19T09:20:49;4.75;;;2.33;;
13981;SDS011;7065;50.880;5.502;2023-05-19T09:23:15;6.00;;;2.35;;
13981;SDS011;7065;50.880;5.502;2023-05-19T09:25:51;7.32;;;2.83;;
13981;SDS011;7065;50.880;5.502;2023-05-19T09:28:27;7.85;;;2.92;;
13981;SDS011;7065;50.880;5.502;2023-05-19T09:33:31;3.95;;;2.50;;
13981;SDS011;7065;50.880;5.502;2023-05-19T09:35:58;7.40;;;2.90;;
13981;SDS011;7065;50.880;5.502;2023-05-19T09:38:27;8.77;;;2.90;;
13981;SDS011;7065;50.880;5.502;2023-05-19T09:40:56;7.97;;;3.20;;
13981;SDS011;7065;50.880;5.502;2023-05-19T09:43:24;5.38;;;2.80;;
13981;SDS011;7065;50.880;5.502;2023-05-19T09:46:02;5.50;;;2.35;;
13981;SDS011;7065;50.880;5.502;2023-05-19T09:48:32;4.65;;;2.83;;
13981;SDS011;7065;50.880;5.502;2023-05-19T09:50:59;6.88;;;2.88;;
13981;SDS011;7065;50.880;5.502;2023-05-19T09:53:26;7.28;;;2.50;;
13981;SDS011;7065;50.880;5.502;2023-05-19T09:55:55;7.03;;;3.22;;
13981;SDS011;7065;50.880;5.502;2023-05-19T09:58:21;6.15;;;2.45;;
13981;SDS011;7065;50.880;5.502;2023-05-19T10:00:48;6.22;;;2.92;;
13981;SDS011;7065;50.880;5.502;2023-05-19T10:03:15;6.28;;;3.00;;
13981;SDS011;7065;50.880;5.502;2023-05-19T10:05:42;6.72;;;3.13;;
13981;SDS011;7065;50.880;5.502;2023-05-19T10:08:08;6.10;;;3.47;;
13981;SDS011;7065;50.880;5.502;2023-05-19T10:10:36;7.63;;;3.53;;
13981;SDS011;7065;50.880;5.502;2023-05-19T10:13:02;7.03;;;3.00;;
13981;SDS011;7065;50.880;5.502;2023-05-19T10:15:29;5.78;;;2.90;;
13981;SDS011;7065;50.880;5.502;2023-05-19T10:17:55;7.53;;;2.58;;
13981;SDS011;7065;50.880;5.502;2023-05-19T10:20:21;5.95;;;2.67;;
13981;SDS011;7065;50.880;5.502;2023-05-19T10:22:48;7.68;;;2.75;;
13981;SDS011;7065;50.880;5.502;2023-05-19T10:25:13;6.32;;;2.80;;
13981;SDS011;7065;50.880;5.502;2023-05-19T10:27:50;9.48;;;2.70;;
13981;SDS011;7065;50.880;5.502;2023-05-19T10:30:30;6.18;;;2.80;;
13981;SDS011;7065;50.880;5.502;2023-05-19T10:32:59;5.90;;;2.78;;
13981;SDS011;7065;50.880;5.502;2023-05-19T10:46:25;7.05;;;2.90;;
13981;SDS011;7065;50.880;5.502;2023-05-19T10:48:52;4.90;;;3.10;;
13981;SDS011;7065;50.880;5.502;2023-05-19T10:51:18;4.85;;;2.58;;
13981;SDS011;7065;50.880;5.502;2023-05-19T10:53:44;5.38;;;2.65;;
13981;SDS011;7065;50.880;5.502;2023-05-19T10:56:10;6.68;;;3.20;;
13981;SDS011;7065;50.880;5.502;2023-05-19T10:58:52;6.28;;;2.88;;
13981;SDS011;7065;50.880;5.502;2023-05-19T11:01:18;4.93;;;2.75;;
13981;SDS011;7065;50.880;5.502;2023-05-19T11:03:53;5.40;;;2.63;;
13981;SDS011;7065;50.880;5.502;2023-05-19T11:09:12;5.97;;;2.47;;
13981;SDS011;7065;50.880;5.502;2023-05-19T11:14:16;6.78;;;3.28;;
13981;SDS011;7065;50.880;5.502;2023-05-19T11:16:48;7.20;;;3.38;;
13981;SDS011;7065;50.880;5.502;2023-05-19T11:19:19;4.50;;;2.88;;
13981;SDS011;7065;50.880;5.502;2023-05-19T11:21:53;4.55;;;2.58;;
13981;SDS011;7065;50.880;5.502;2023-05-19T11:30:01;9.68;;;3.17;;
13981;SDS011;7065;50.880;5.502;2023-05-19T11:32:38;5.60;;;2.60;;
13981;SDS011;7065;50.880;5.502;2023-05-19T11:35:06;5.25;;;2.88;;
13981;SDS011;7065;50.880;5.502;2023-05-19T11:37:34;8.27;;;3.30;;
13981;SDS011;7065;50.880;5.502;2023-05-19T11:40:01;7.05;;;2.42;;
13981;SDS011;7065;50.880;5.502;2023-05-19T11:42:30;5.93;;;2.70;;
13981;SDS011;7065;50.880;5.502;2023-05-19T11:44:56;4.90;;;2.33;;
13981;SDS011;7065;50.880;5.502;2023-05-19T11:47:21;3.83;;;2.40;;
13981;SDS011;7065;50.880;5.502;2023-05-19T11:49:47;6.40;;;3.08;;
13981;SDS011;7065;50.880;5.502;2023-05-19T11:52:15;10.35;;;2.90;;
13981;SDS011;7065;50.880;5.502;2023-05-19T11:54:46;6.38;;;2.70;;
13981;SDS011;7065;50.880;5.502;2023-05-19T11:57:13;6.07;;;2.50;;
13981;SDS011;7065;50.880;5.502;2023-05-19T11:59:39;5.47;;;2.65;;
13981;SDS011;7065;50.880;5.502;2023-05-19T12:04:45;5.32;;;2.22;;
13981;SDS011;7065;50.880;5.502;2023-05-19T12:07:12;8.10;;;3.00;;
13981;SDS011;7065;50.880;5.502;2023-05-19T12:09:41;6.97;;;2.90;;
13981;SDS011;7065;50.880;5.502;2023-05-19T12:12:07;5.85;;;2.95;;
13981;SDS011;7065;50.880;5.502;2023-05-19T12:14:33;4.13;;;2.00;;
13981;SDS011;7065;50.880;5.502;2023-05-19T12:17:08;4.25;;;2.35;;
13981;SDS011;7065;50.880;5.502;2023-05-19T12:19:36;6.82;;;2.28;;
13981;SDS011;7065;50.880;5.502;2023-05-19T12:22:02;8.00;;;2.10;;
13981;SDS011;7065;50.880;5.502;2023-05-19T12:24:28;4.72;;;2.20;;
13981;SDS011;7065;50.880;5.502;2023-05-19T12:27:16;6.30;;;2.17;;
13981;SDS011;7065;50.880;5.502;2023-05-19T12:29:49;6.18;;;2.50;;
13981;SDS011;7065;50.880;5.502;2023-05-19T12:32:18;7.43;;;2.63;;
13981;SDS011;7065;50.880;5.502;2023-05-19T12:34:48;4.75;;;2.20;;
13981;SDS011;7065;50.880;5.502;2023-05-19T12:37:15;8.20;;;2.50;;
13981;SDS011;7065;50.880;5.502;2023-05-19T12:39:41;4.75;;;2.10;;
13981;SDS011;7065;50.880;5.502;2023-05-19T12:42:07;5.43;;;2.28;;
13981;SDS011;7065;50.880;5.502;2023-05-19T12:44:41;6.82;;;2.60;;
13981;SDS011;7065;50.880;5.502;2023-05-19T12:47:14;4.70;;;2.08;;
13981;SDS011;7065;50.880;5.502;2023-05-19T12:52:27;4.45;;;2.20;;
13981;SDS011;7065;50.880;5.502;2023-05-19T12:54:57;3.72;;;2.03;;
13981;SDS011;7065;50.880;5.502;2023-05-19T12:57:25;4.80;;;2.10;;
13981;SDS011;7065;50.880;5.502;2023-05-19T12:59:51;6.07;;;2.17;;
13981;SDS011;7065;50.880;5.502;2023-05-19T13:02:17;4.45;;;2.10;;
13981;SDS011;7065;50.880;5.502;2023-05-19T13:04:43;4.90;;;2.03;;
13981;SDS011;7065;50.880;5.502;2023-05-19T13:07:09;4.10;;;2.00;;
13981;SDS011;7065;50.880;5.502;2023-05-19T13:09:35;4.07;;;1.90;;
13981;SDS011;7065;50.880;5.502;2023-05-19T13:12:02;7.63;;;2.30;;
13981;SDS011;7065;50.880;5.502;2023-05-19T13:14:28;6.05;;;2.35;;
13981;SDS011;7065;50.880;5.502;2023-05-19T13:16:54;5.10;;;2.28;;
13981;SDS011;7065;50.880;5.502;2023-05-19T13:19:20;5.10;;;2.22;;
13981;SDS011;7065;50.880;5.502;2023-05-19T13:21:46;4.32;;;2.03;;
13981;SDS011;7065;50.880;5.502;2023-05-19T13:24:12;4.20;;;2.30;;
13981;SDS011;7065;50.880;5.502;2023-05-19T13:26:38;7.32;;;2.28;;
13981;SDS011;7065;50.880;5.502;2023-05-19T13:29:05;5.32;;;2.25;;
13981;SDS011;7065;50.880;5.502;2023-05-19T13:31:31;7.03;;;2.40;;
13981;SDS011;7065;50.880;5.502;2023-05-19T13:33:57;6.40;;;2.17;;
13981;SDS011;7065;50.880;5.502;2023-05-19T13:36:23;4.93;;;2.33;;
13981;SDS011;7065;50.880;5.502;2023-05-19T13:38:51;4.80;;;2.10;;
13981;SDS011;7065;50.880;5.502;2023-05-19T13:41:21;4.78;;;2.20;;
13981;SDS011;7065;50.880;5.502;2023-05-19T13:43:49;5.82;;;2.42;;
13981;SDS011;7065;50.880;5.502;2023-05-19T13:46:15;5.88;;;2.33;;
13981;SDS011;7065;50.880;5.502;2023-05-19T13:48:40;4.60;;;2.30;;
13981;SDS011;7065;50.880;5.502;2023-05-19T13:51:06;3.97;;;1.90;;
13981;SDS011;7065;50.880;5.502;2023-05-19T13:53:32;3.53;;;2.05;;
13981;SDS011;7065;50.880;5.502;2023-05-19T13:55:59;5.60;;;2.45;;
13981;SDS011;7065;50.880;5.502;2023-05-19T13:58:25;5.60;;;2.45;;
13981;SDS011;7065;50.880;5.502;2023-05-19T14:00:51;6.28;;;2.53;;
13981;SDS011;7065;50.880;5.502;2023-05-19T14:03:19;8.95;;;2.33;;
13981;SDS011;7065;50.880;5.502;2023-05-19T14:05:46;4.88;;;2.33;;
13981;SDS011;7065;50.880;5.502;2023-05-19T14:08:12;4.78;;;2.50;;
13981;SDS011;7065;50.880;5.502;2023-05-19T14:10:38;6.68;;;2.40;;
13981;SDS011;7065;50.880;5.502;2023-05-19T14:13:06;6.50;;;2.88;;
13981;SDS011;7065;50.880;5.502;2023-05-19T14:15:34;7.97;;;2.88;;
13981;SDS011;7065;50.880;5.502;2023-05-19T14:18:01;5.07;;;2.47;;
13981;SDS011;7065;50.880;5.502;2023-05-19T14:20:27;9.38;;;2.50;;
13981;SDS011;7065;50.880;5.502;2023-05-19T14:22:53;4.35;;;2.30;;
13981;SDS011;7065;50.880;5.502;2023-05-19T14:25:19;4.75;;;2.53;;
13981;SDS011;7065;50.880;5.502;2023-05-19T14:27:45;3.53;;;2.05;;
13981;SDS011;7065;50.880;5.502;2023-05-19T14:30:11;3.55;;;2.33;;
13981;SDS011;7065;50.880;5.502;2023-05-19T14:32:37;6.03;;;3.05;;
13981;SDS011;7065;50.880;5.502;2023-05-19T14:35:03;6.18;;;2.47;;
13981;SDS011;7065;50.880;5.502;2023-05-19T14:37:29;6.35;;;2.70;;
13981;SDS011;7065;50.880;5.502;2023-05-19T14:39:56;4.43;;;2.30;;
13981;SDS011;7065;50.880;5.502;2023-05-19T14:42:22;5.05;;;2.28;;
13981;SDS011;7065;50.880;5.502;2023-05-19T14:44:48;4.50;;;2.40;;
13981;SDS011;7065;50.880;5.502;2023-05-19T14:47:14;6.40;;;2.50;;
13981;SDS011;7065;50.880;5.502;2023-05-19T14:49:39;4.95;;;2.60;;
13981;SDS011;7065;50.880;5.502;2023-05-19T14:52:06;4.88;;;2.40;;
13981;SDS011;7065;50.880;5.502;2023-05-19T14:54:31;5.95;;;2.78;;
13981;SDS011;7065;50.880;5.502;2023-05-19T14:56:57;8.32;;;2.63;;
13981;SDS011;7065;50.880;5.502;2023-05-19T14:59:23;6.13;;;2.92;;
13981;SDS011;7065;50.880;5.502;2023-05-19T15:01:49;5.22;;;2.45;;
13981;SDS011;7065;50.880;5.502;2023-05-19T15:04:15;7.30;;;2.95;;
13981;SDS011;7065;50.880;5.502;2023-05-19T15:06:41;4.38;;;2.35;;
13981;SDS011;7065;50.880;5.502;2023-05-19T15:09:07;6.60;;;2.53;;
13981;SDS011;7065;50.880;5.502;2023-05-19T15:11:33;6.63;;;2.50;;
13981;SDS011;7065;50.880;5.502;2023-05-19T15:13:59;6.00;;;2.88;;
13981;SDS011;7065;50.880;5.502;2023-05-19T15:16:25;5.97;;;2.50;;
13981;SDS011;7065;50.880;5.502;2023-05-19T15:18:51;4.45;;;2.53;;
13981;SDS011;7065;50.880;5.502;2023-05-19T15:21:16;6.43;;;3.17;;
13981;SDS011;7065;50.880;5.502;2023-05-19T15:23:42;6.03;;;2.83;;
13981;SDS011;7065;50.880;5.502;2023-05-19T15:26:08;8.73;;;2.85;;
13981;SDS011;7065;50.880;5.502;2023-05-19T15:28:33;5.95;;;3.17;;
13981;SDS011;7065;50.880;5.502;2023-05-19T15:30:59;9.38;;;3.20;;
13981;SDS011;7065;50.880;5.502;2023-05-19T15:33:25;7.35;;;2.85;;
13981;SDS011;7065;50.880;5.502;2023-05-19T15:35:50;5.95;;;2.58;;
13981;SDS011;7065;50.880;5.502;2023-05-19T15:38:17;8.85;;;2.88;;
13981;SDS011;7065;50.880;5.502;2023-05-19T15:40:43;5.45;;;2.47;;
13981;SDS011;7065;50.880;5.502;2023-05-19T15:43:09;4.78;;;2.20;;
13981;SDS011;7065;50.880;5.502;2023-05-19T15:45:35;4.70;;;2.60;;